createdAt,value
2022-08-19T00:02:04.410Z,99460.27
2022-08-19T00:04:39.540Z,99455.40
2022-08-19T00:07:08.327Z,99451.17
2022-08-19T00:09:37.086Z,99448.48
2022-08-19T00:12:07.459Z,99450.20
2022-08-19T00:14:45.485Z,99442.89
2022-08-19T00:17:13.922Z,99437.70
2022-08-19T00:19:42.198Z,99432.03
2022-08-19T00:22:13.898Z,99431.95
2022-08-19T00:24:50.689Z,99430.89
2022-08-19T00:27:26.382Z,99421.88
2022-08-19T00:29:57.053Z,99417.32
2022-08-19T00:32:26.298Z,99414.48
2022-08-19T00:34:57.777Z,99408.73
2022-08-19T00:37:33.255Z,99403.20
2022-08-19T00:40:12.671Z,99403.30
2022-08-19T00:42:41.503Z,99407.30
2022-08-19T00:45:15.031Z,99401.85
2022-08-19T00:47:43.359Z,99399.83
2022-08-19T00:50:17.129Z,99399.41
2022-08-19T00:52:51.230Z,99399.60
2022-08-19T00:55:23.437Z,99404.31
2022-08-19T00:57:58.003Z,99406.27
2022-08-19T01:00:28.729Z,99407.16
2022-08-19T01:03:00.389Z,99401.55
2022-08-19T01:05:30.631Z,99395.31
2022-08-19T01:08:00.857Z,99379.73
2022-08-19T01:10:36.139Z,99370.14
2022-08-19T01:13:11.652Z,99373.09
2022-08-19T01:15:52.559Z,99377.22
2022-08-19T01:23:19.154Z,99401.73
2022-08-19T01:25:52.761Z,99411.90
2022-08-19T01:28:39.956Z,99425.38
2022-08-19T01:31:32.805Z,99417.08
2022-08-19T01:34:05.572Z,99385.67
2022-08-19T01:36:43.086Z,99368.47
2022-08-19T01:39:27.668Z,99379.34
2022-08-19T01:42:14.420Z,99382.40
2022-08-19T01:44:46.852Z,99370.81
2022-08-19T01:47:32.124Z,99370.73
2022-08-19T01:50:21.621Z,99367.00
2022-08-19T01:53:08.612Z,99359.20
2022-08-19T01:56:50.233Z,99351.97
2022-08-19T01:59:22.398Z,99350.46
2022-08-19T02:02:04.899Z,99349.09
2022-08-19T02:04:57.293Z,99353.38
2022-08-19T02:12:10.231Z,99359.13
2022-08-19T02:15:25.361Z,99360.41
2022-08-19T02:19:33.998Z,99353.12
2022-08-19T02:22:22.290Z,99346.48
2022-08-19T02:26:07.046Z,99335.69
2022-08-19T02:28:55.303Z,99323.60
2022-08-19T02:35:15.551Z,99337.46
2022-08-19T02:36:26.893Z,99328.89
2022-08-19T02:38:47.052Z,99336.01
2022-08-19T02:41:53.017Z,99323.85
2022-08-19T02:44:31.119Z,99314.36
2022-08-19T02:47:00.532Z,99320.75
2022-08-19T02:49:29.077Z,99321.80
2022-08-19T02:52:03.957Z,99326.58
2022-08-19T02:54:33.971Z,99331.77
2022-08-19T02:57:02.382Z,99330.77
2022-08-19T02:59:34.825Z,99335.31
2022-08-19T03:02:03.223Z,99337.40
2022-08-19T03:04:36.075Z,99334.56
2022-08-19T03:07:10.903Z,99328.48
2022-08-19T03:09:41.154Z,99329.06
2022-08-19T03:12:12.215Z,99325.90
2022-08-19T03:14:43.977Z,99334.23
2022-08-19T03:17:21.362Z,99341.05
2022-08-19T03:20:06.283Z,99348.16
2022-08-19T03:25:58.233Z,99353.09
2022-08-19T03:28:57.812Z,99359.09
2022-08-19T03:31:45.589Z,99360.05
2022-08-19T03:34:30.542Z,99356.23
2022-08-19T03:37:13.413Z,99355.73
2022-08-19T03:39:48.863Z,99363.25
2022-08-19T03:42:38.826Z,99364.38
2022-08-19T03:45:11.651Z,99363.55
2022-08-19T03:47:41.945Z,99368.58
2022-08-19T03:50:10.641Z,99363.08
2022-08-19T03:52:40.640Z,99362.83
2022-08-19T03:55:22.878Z,99362.44
2022-08-19T03:57:59.265Z,99364.72
2022-08-19T04:00:30.352Z,99360.90
2022-08-19T04:03:05.315Z,99361.72
2022-08-19T04:05:38.552Z,99366.25
2022-08-19T04:08:14.306Z,99376.15
2022-08-19T04:10:44.665Z,99382.73
2022-08-19T04:13:20.679Z,99389.30
2022-08-19T04:15:49.193Z,99391.02
2022-08-19T04:18:19.315Z,99387.95
2022-08-19T04:20:53.361Z,99388.09
2022-08-19T04:23:33.221Z,99394.09
2022-08-19T04:26:02.339Z,99395.42
2022-08-19T04:28:33.917Z,99395.59
2022-08-19T04:31:02.299Z,99392.67
2022-08-19T04:33:31.526Z,99389.91
2022-08-19T04:35:59.825Z,99386.45
2022-08-19T04:38:28.134Z,99383.86
2022-08-19T04:41:15.139Z,99378.34
2022-08-19T04:43:49.942Z,99376.89
2022-08-19T04:46:38.172Z,99378.68
2022-08-19T04:49:13.219Z,99379.17
2022-08-19T04:51:46.506Z,99377.00
2022-08-19T04:54:23.925Z,99383.73
2022-08-19T04:57:10.768Z,99377.42
2022-08-19T04:59:40.175Z,99374.11
2022-08-19T05:02:09.930Z,99371.55
2022-08-19T05:04:40.344Z,99369.04
2022-08-19T05:07:10.999Z,99367.70
2022-08-19T05:09:58.111Z,99363.88
2022-08-19T05:12:29.143Z,99367.28
2022-08-19T05:14:59.045Z,99364.92
2022-08-19T05:17:29.677Z,99361.40
2022-08-19T05:20:18.440Z,99365.05
2022-08-19T05:22:48.490Z,99371.38
2022-08-19T05:25:20.627Z,99371.81
2022-08-19T05:27:50.362Z,99370.61
2022-08-19T05:30:30.222Z,99371.85
2022-08-19T05:33:10.625Z,99370.73
2022-08-19T05:35:40.248Z,99367.71
2022-08-19T05:38:09.329Z,99371.77
2022-08-19T05:40:38.178Z,99383.86
2022-08-19T05:43:09.178Z,99401.77
2022-08-19T05:45:41.433Z,99404.67
2022-08-19T05:48:14.930Z,99396.02
2022-08-19T05:50:47.450Z,99397.08
2022-08-19T05:53:17.472Z,99399.04
2022-08-19T05:55:46.014Z,99399.77
2022-08-19T05:58:14.371Z,99390.94
2022-08-19T06:00:46.920Z,99393.13
2022-08-19T06:03:15.019Z,99397.44
2022-08-19T06:05:49.708Z,99405.87
2022-08-19T06:08:34.234Z,99414.06
2022-08-19T06:11:33.977Z,99418.37
2022-08-19T06:14:09.641Z,99425.77
2022-08-19T06:16:46.961Z,99421.41
2022-08-19T06:19:18.238Z,99425.13
2022-08-19T06:21:48.824Z,99442.91
2022-08-19T06:24:22.321Z,99457.35
2022-08-19T06:26:58.012Z,99461.98
2022-08-19T06:29:34.827Z,99459.61
2022-08-19T06:32:04.519Z,99459.20
2022-08-19T06:34:36.519Z,99457.05
2022-08-19T06:37:06.798Z,99456.00
2022-08-19T06:39:42.075Z,99463.20
2022-08-19T06:42:12.854Z,99460.48
2022-08-19T06:44:48.841Z,99464.33
2022-08-19T06:47:23.572Z,99459.48
2022-08-19T06:50:05.376Z,99459.01
2022-08-19T06:52:36.772Z,99468.84
2022-08-19T06:55:07.108Z,99475.53
2022-08-19T06:57:38.238Z,99483.83
2022-08-19T07:00:12.302Z,99488.63
2022-08-19T07:02:44.719Z,99499.70
2022-08-19T07:05:18.087Z,99503.12
2022-08-19T07:07:48.412Z,99508.73
2022-08-19T07:10:20.202Z,99511.87
2022-08-19T07:12:51.377Z,99515.95
2022-08-19T07:15:22.465Z,99513.07
2022-08-19T07:17:52.609Z,99505.41
2022-08-19T07:20:20.949Z,99513.92
2022-08-19T07:22:49.201Z,99521.81
2022-08-19T07:25:20.470Z,99530.70
2022-08-19T07:27:54.954Z,99530.27
2022-08-19T07:30:29.375Z,99527.09
2022-08-19T07:33:00.738Z,99526.48
2022-08-19T07:35:33.241Z,99534.05
2022-08-19T07:38:03.624Z,99536.05
2022-08-19T07:40:33.640Z,99543.38
2022-08-19T07:43:01.818Z,99549.64
2022-08-19T07:45:30.843Z,99554.09
2022-08-19T07:47:59.574Z,99553.89
2022-08-19T07:50:28.745Z,99561.23
2022-08-19T07:52:58.063Z,99560.19
2022-08-19T07:55:42.086Z,99561.11
2022-08-19T07:58:16.389Z,99562.92
2022-08-19T08:00:45.923Z,99564.94
2022-08-19T08:03:17.453Z,99557.08
2022-08-19T08:06:04.780Z,99560.18
2022-08-19T08:08:52.793Z,99559.25
2022-08-19T08:11:24.090Z,99554.40
2022-08-19T08:14:00.963Z,99557.33
2022-08-19T08:16:39.563Z,99559.60
2022-08-19T08:19:20.714Z,99554.55
2022-08-19T08:21:57.161Z,99552.20
2022-08-19T08:24:31.849Z,99555.47
2022-08-19T08:27:01.702Z,99551.73
2022-08-19T08:29:44.303Z,99551.34
2022-08-19T08:32:16.480Z,99556.38
2022-08-19T08:34:47.450Z,99563.02
2022-08-19T08:37:21.915Z,99567.02
2022-08-19T08:39:50.960Z,99566.77
2022-08-19T08:42:29.286Z,99565.64
2022-08-19T08:45:17.015Z,99564.58
2022-08-19T08:48:32.326Z,99557.98
2022-08-19T08:51:03.330Z,99563.92
2022-08-19T08:53:41.415Z,99561.64
2022-08-19T08:56:17.122Z,99557.41
2022-08-19T08:59:14.656Z,99551.35
2022-08-19T09:01:42.875Z,99542.69
2022-08-19T09:04:19.294Z,99540.09
2022-08-19T09:07:18.418Z,99540.41
2022-08-19T09:10:44.050Z,99532.27
2022-08-19T09:13:47.562Z,99526.70
2022-08-19T09:16:27.927Z,99534.31
2022-08-19T09:19:02.748Z,99542.70
2022-08-19T09:21:33.480Z,99549.78
2022-08-19T09:24:07.862Z,99551.33
2022-08-19T09:26:47.651Z,99548.45
2022-08-19T09:29:22.517Z,99543.25
2022-08-19T09:31:51.188Z,99539.23
2022-08-19T09:34:22.129Z,99548.21
2022-08-19T09:36:54.799Z,99547.14
2022-08-19T09:39:23.210Z,99544.72
2022-08-19T09:41:54.035Z,99538.83
2022-08-19T09:44:22.184Z,99537.52
2022-08-19T09:46:50.516Z,99532.75
2022-08-19T09:49:22.901Z,99529.34
2022-08-19T09:51:57.355Z,99524.75
2022-08-19T09:54:29.421Z,99531.33
2022-08-19T09:57:01.314Z,99533.67
2022-08-19T09:59:34.937Z,99542.33
2022-08-19T10:02:10.824Z,99545.57
2022-08-19T10:04:58.330Z,99542.32
2022-08-19T10:07:36.195Z,99542.02
2022-08-19T10:10:07.274Z,99547.98
2022-08-19T10:12:36.650Z,99547.27
2022-08-19T10:15:07.237Z,99553.89
2022-08-19T10:17:36.063Z,99559.50
2022-08-19T10:20:05.813Z,99556.30
2022-08-19T10:22:36.741Z,99558.24
2022-08-19T10:25:06.358Z,99553.20
2022-08-19T10:27:34.436Z,99552.97
2022-08-19T10:30:04.594Z,99546.71
2022-08-19T10:32:39.577Z,99548.67
2022-08-19T10:35:21.918Z,99548.03
2022-08-19T10:37:57.615Z,99548.32
2022-08-19T10:40:31.796Z,99544.48
2022-08-19T10:43:00.545Z,99540.02
2022-08-19T10:45:29.846Z,99544.09
2022-08-19T10:47:57.949Z,99540.85
2022-08-19T10:51:01.369Z,99547.80
2022-08-19T10:53:31.516Z,99547.76
2022-08-19T10:56:18.353Z,99552.29
2022-08-19T10:58:49.834Z,99551.17
2022-08-19T11:01:19.340Z,99548.84
2022-08-19T11:03:47.884Z,99543.05
2022-08-19T11:06:16.007Z,99552.27
2022-08-19T11:08:46.032Z,99554.91
2022-08-19T11:11:14.312Z,99551.29
2022-08-19T11:13:46.983Z,99554.08
2022-08-19T11:16:20.439Z,99553.89
2022-08-19T11:18:59.489Z,99560.45
2022-08-19T11:21:37.359Z,99560.70
2022-08-19T11:24:13.937Z,99551.31
2022-08-19T11:26:45.073Z,99553.65
2022-08-19T11:29:14.355Z,99559.95
2022-08-19T11:31:45.500Z,99560.81
2022-08-19T11:34:22.099Z,99570.28
2022-08-19T11:36:54.108Z,99570.36
2022-08-19T11:39:23.387Z,99565.06
2022-08-19T11:41:52.852Z,99563.69
2022-08-19T11:44:21.005Z,99557.36
2022-08-19T11:46:49.762Z,99558.86
2022-08-19T11:49:20.352Z,99558.54
2022-08-19T11:51:53.800Z,99557.70
2022-08-19T11:54:23.107Z,99563.36
2022-08-19T11:56:51.184Z,99565.52
2022-08-19T11:59:19.227Z,99558.60
2022-08-19T12:01:48.175Z,99552.72
2022-08-19T12:04:17.309Z,99553.92
2022-08-19T12:06:47.462Z,99555.27
2022-08-19T12:09:16.563Z,99552.06
2022-08-19T12:11:44.893Z,99550.31
2022-08-19T12:14:15.073Z,99549.29
2022-08-19T12:16:51.408Z,99548.70
2022-08-19T12:19:22.331Z,99553.23
2022-08-19T12:21:52.220Z,99549.96
2022-08-19T12:24:24.294Z,99550.56
2022-08-19T12:26:56.505Z,99551.40
2022-08-19T12:29:33.955Z,99552.44
2022-08-19T12:32:03.754Z,99557.06
2022-08-19T12:34:38.253Z,99557.71
2022-08-19T12:37:09.716Z,99562.08
2022-08-19T12:39:41.044Z,99560.98
2022-08-19T12:42:11.300Z,99561.07
2022-08-19T12:44:43.576Z,99559.30
2022-08-19T12:47:16.104Z,99565.26
2022-08-19T12:49:53.365Z,99564.42
2022-08-19T12:52:25.896Z,99561.45
2022-08-19T12:54:56.381Z,99565.92
2022-08-19T12:57:32.897Z,99564.48
2022-08-19T13:00:05.786Z,99562.48
2022-08-19T13:02:38.496Z,99565.42
2022-08-19T13:05:10.154Z,99571.98
2022-08-19T13:07:41.896Z,99564.10
2022-08-19T13:10:13.016Z,99564.57
2022-08-19T13:12:42.292Z,99557.94
2022-08-19T13:15:11.556Z,99553.46
2022-08-19T13:17:40.980Z,99554.22
2022-08-19T13:20:11.371Z,99552.73
2022-08-19T13:22:40.083Z,99555.80
2022-08-19T13:25:11.120Z,99553.83
2022-08-19T13:27:40.602Z,99548.91
2022-08-19T13:30:29.451Z,99549.91
2022-08-19T13:33:17.208Z,99553.20
2022-08-19T13:35:58.305Z,99558.77
2022-08-19T13:38:26.970Z,99557.56
2022-08-19T13:40:56.279Z,99549.92
2022-08-19T13:43:33.921Z,99551.50
2022-08-19T13:46:10.726Z,99551.36
2022-08-19T13:48:39.976Z,99550.05
2022-08-19T13:51:13.703Z,99549.65
2022-08-19T13:53:47.871Z,99553.58
2022-08-19T13:56:24.161Z,99553.11
2022-08-19T13:58:59.390Z,99558.97
2022-08-19T14:01:28.434Z,99564.02
2022-08-19T14:03:56.533Z,99562.10
2022-08-19T14:06:24.670Z,99558.48
2022-08-19T14:08:53.751Z,99559.73
2022-08-19T14:11:24.075Z,99561.76
2022-08-19T14:13:52.428Z,99561.77
2022-08-19T14:16:23.182Z,99566.01
2022-08-19T14:18:51.238Z,99563.32
2022-08-19T14:21:26.409Z,99566.61
2022-08-19T14:23:54.927Z,99564.73
2022-08-19T14:26:26.032Z,99562.95
2022-08-19T14:28:58.327Z,99561.63
2022-08-19T14:31:31.159Z,99567.52
2022-08-19T14:34:02.642Z,99572.62
2022-08-19T14:36:33.758Z,99569.33
2022-08-19T14:39:05.580Z,99572.98
2022-08-19T14:41:34.792Z,99575.33
2022-08-19T14:44:03.352Z,99577.29
2022-08-19T14:46:31.718Z,99576.19
2022-08-19T14:49:00.360Z,99572.68
2022-08-19T14:51:29.168Z,99564.85
2022-08-19T14:53:57.641Z,99561.30
2022-08-19T14:56:29.426Z,99555.60
2022-08-19T14:59:01.885Z,99556.61
2022-08-19T15:01:31.484Z,99552.23
2022-08-19T15:03:59.512Z,99550.52
2022-08-19T15:06:30.394Z,99550.92
2022-08-19T15:09:03.892Z,99551.91
2022-08-19T15:11:33.744Z,99548.59
2022-08-19T15:14:02.617Z,99550.86
2022-08-19T15:16:30.605Z,99550.49
2022-08-19T15:19:00.734Z,99550.56
2022-08-19T15:21:29.810Z,99552.80
2022-08-19T15:23:59.225Z,99552.63
2022-08-19T15:26:32.982Z,99556.80
2022-08-19T15:29:03.153Z,99562.30
2022-08-19T15:31:37.953Z,99560.92
2022-08-19T15:34:06.956Z,99559.81
2022-08-19T15:36:37.614Z,99562.33
2022-08-19T15:39:31.703Z,99565.81
2022-08-19T15:42:00.830Z,99566.21
2022-08-19T15:44:30.292Z,99574.29
2022-08-19T15:46:58.525Z,99577.55
2022-08-19T15:49:26.523Z,99574.64
2022-08-19T15:51:57.749Z,99570.66
2022-08-19T15:54:25.885Z,99560.51
2022-08-19T15:57:12.719Z,99554.32
2022-08-19T16:00:02.597Z,99554.41
2022-08-19T16:02:53.686Z,99552.00
2022-08-19T16:05:44.221Z,99553.04
2022-08-19T16:08:12.584Z,99547.55
2022-08-19T16:10:43.380Z,99540.48
2022-08-19T16:13:11.809Z,99538.23
2022-08-19T16:15:43.854Z,99535.16
2022-08-19T16:18:12.397Z,99535.47
2022-08-19T16:20:41.088Z,99537.86
2022-08-19T16:23:09.138Z,99539.33
2022-08-19T16:25:39.435Z,99539.54
2022-08-19T16:28:09.542Z,99540.45
2022-08-19T16:30:42.930Z,99540.04
2022-08-19T16:33:22.706Z,99547.30
2022-08-19T16:35:56.106Z,99549.77
2022-08-19T16:38:29.075Z,99553.06
2022-08-19T16:41:00.551Z,99549.20
2022-08-19T16:43:30.958Z,99546.29
2022-08-19T16:45:59.770Z,99545.14
2022-08-19T16:48:30.344Z,99542.18
2022-08-19T16:50:59.903Z,99550.23
2022-08-19T16:53:32.353Z,99552.59
2022-08-19T16:56:10.067Z,99556.69
2022-08-19T16:58:38.192Z,99560.52
2022-08-19T17:01:13.565Z,99569.88
2022-08-19T17:03:41.873Z,99580.31
2022-08-19T17:06:20.474Z,99582.39
2022-08-19T17:08:54.076Z,99584.00
2022-08-19T17:11:24.480Z,99592.52
2022-08-19T17:13:54.153Z,99598.81
2022-08-19T17:16:25.620Z,99597.09
2022-08-19T17:18:55.401Z,99598.14
2022-08-19T17:21:32.201Z,99597.86
2022-08-19T17:24:01.223Z,99596.69
2022-08-19T17:26:31.250Z,99595.93
2022-08-19T17:28:59.727Z,99600.52
2022-08-19T17:31:30.698Z,99605.95
2022-08-19T17:33:59.919Z,99607.25
2022-08-19T17:36:31.907Z,99613.07
2022-08-19T17:39:01.201Z,99619.16
2022-08-19T17:41:30.418Z,99620.27
2022-08-19T17:43:58.547Z,99622.44
2022-08-19T17:46:26.829Z,99630.68
2022-08-19T17:48:57.636Z,99629.35
2022-08-19T17:51:33.461Z,99637.91
2022-08-19T17:54:02.351Z,99642.31
2022-08-19T17:56:30.829Z,99647.20
2022-08-19T17:59:00.760Z,99650.04
2022-08-19T18:01:43.941Z,99655.73
2022-08-19T18:04:20.241Z,99653.98
2022-08-19T18:06:53.225Z,99654.63
2022-08-19T18:09:41.192Z,99655.44
2022-08-19T18:12:17.065Z,99660.46
2022-08-19T18:14:47.933Z,99661.32
2022-08-19T18:17:19.584Z,99662.66
2022-08-19T18:19:48.217Z,99672.80
2022-08-19T18:22:29.488Z,99675.33
2022-08-19T18:24:58.949Z,99675.01
2022-08-19T18:27:28.521Z,99673.73
2022-08-19T18:29:59.807Z,99672.77
2022-08-19T18:32:34.330Z,99673.30
2022-08-19T18:35:10.155Z,99666.55
2022-08-19T18:37:41.204Z,99658.28
2022-08-19T18:40:31.154Z,99655.45
2022-08-19T18:43:12.810Z,99648.30
2022-08-19T18:46:01.466Z,99642.89
2022-08-19T18:48:50.017Z,99632.73
2022-08-19T18:51:19.192Z,99635.92
2022-08-19T18:53:51.202Z,99635.92
2022-08-19T18:56:32.434Z,99639.02
2022-08-19T18:59:01.708Z,99644.88
2022-08-19T19:01:38.883Z,99653.06
2022-08-19T19:04:13.459Z,99660.88
2022-08-19T19:06:42.745Z,99670.48
2022-08-19T19:09:14.419Z,99681.21
2022-08-19T19:11:47.383Z,99698.39
2022-08-19T19:14:45.647Z,99705.15
2022-08-19T19:17:14.251Z,99713.60
2022-08-19T19:19:42.999Z,99724.19
2022-08-19T19:22:14.455Z,99736.70
2022-08-19T19:24:54.145Z,99744.11
2022-08-19T19:27:22.938Z,99749.64
2022-08-19T19:30:01.653Z,99752.90
2022-08-19T19:32:39.203Z,99751.52
2022-08-19T19:35:10.699Z,99756.39
2022-08-19T19:37:39.922Z,99760.88
2022-08-19T19:40:08.539Z,99757.86
2022-08-19T19:42:36.681Z,99759.82
2022-08-19T19:45:06.965Z,99760.77
2022-08-19T19:47:37.504Z,99757.10
2022-08-19T19:50:16.011Z,99758.23
2022-08-19T19:52:48.749Z,99747.27
2022-08-19T19:55:23.426Z,99735.39
2022-08-19T19:57:54.366Z,99735.06
2022-08-19T20:00:22.896Z,99729.45
2022-08-19T20:02:53.061Z,99724.90
2022-08-19T20:05:23.460Z,99729.62
2022-08-19T20:08:13.839Z,99737.10
2022-08-19T20:10:45.933Z,99738.23
2022-08-19T20:13:15.713Z,99747.66
2022-08-19T20:15:43.924Z,99758.55
2022-08-19T20:18:14.553Z,99758.64
2022-08-19T20:20:46.827Z,99763.44
2022-08-19T20:23:15.112Z,99772.04
2022-08-19T20:25:43.580Z,99787.81
2022-08-19T20:28:14.599Z,99788.21
2022-08-19T20:30:48.053Z,99794.47
2022-08-19T20:33:19.578Z,99786.98
2022-08-19T20:35:49.071Z,99779.34
2022-08-19T20:38:17.263Z,99774.23
2022-08-19T20:40:45.500Z,99776.09
2022-08-19T20:43:15.415Z,99776.66
2022-08-19T20:45:47.055Z,99778.36
2022-08-19T20:48:15.142Z,99777.70
2022-08-19T20:50:43.151Z,99770.77
2022-08-19T20:53:19.256Z,99768.33
2022-08-19T20:55:52.700Z,99765.51
2022-08-19T20:58:22.619Z,99766.20
2022-08-19T21:00:53.172Z,99768.70
2022-08-19T21:03:26.224Z,99774.69
2022-08-19T21:05:55.932Z,99782.00
2022-08-19T21:08:24.926Z,99787.69
2022-08-19T21:10:57.501Z,99787.54
2022-08-19T21:13:26.168Z,99793.39
2022-08-19T21:15:57.744Z,99788.85
2022-08-19T21:18:27.030Z,99786.16
2022-08-19T21:20:56.057Z,99777.96
2022-08-19T21:23:28.900Z,99778.61
2022-08-19T21:26:00.575Z,99770.39
2022-08-19T21:28:35.003Z,99772.98
2022-08-19T21:31:10.457Z,99769.39
2022-08-19T21:33:40.033Z,99758.66
2022-08-19T21:36:11.288Z,99750.36
2022-08-19T21:38:41.392Z,99757.18
2022-08-19T21:41:09.607Z,99758.63
2022-08-19T21:43:41.106Z,99758.78
2022-08-19T21:46:09.835Z,99743.02
2022-08-19T21:48:38.462Z,99733.42
2022-08-19T21:51:06.860Z,99723.33
2022-08-19T21:53:37.803Z,99724.05
2022-08-19T21:56:06.885Z,99726.92
2022-08-19T21:58:37.962Z,99725.58
2022-08-19T22:01:08.295Z,99723.73
2022-08-19T22:03:38.987Z,99717.48
2022-08-19T22:06:07.377Z,99715.87
2022-08-19T22:08:36.168Z,99718.46
2022-08-19T22:11:04.432Z,99723.63
2022-08-19T22:13:39.926Z,99726.20
2022-08-19T22:16:10.211Z,99716.29
2022-08-19T22:18:41.551Z,99709.06
2022-08-19T22:21:12.183Z,99701.98
2022-08-19T22:23:42.221Z,99690.94
2022-08-19T22:26:11.587Z,99693.10
2022-08-19T22:28:40.384Z,99693.33
2022-08-19T22:31:09.780Z,99693.79
2022-08-19T22:33:39.211Z,99692.38
2022-08-19T22:36:07.772Z,99686.85
2022-08-19T22:38:38.371Z,99688.13
2022-08-19T22:41:08.041Z,99687.95
2022-08-19T22:43:37.603Z,99694.03
2022-08-19T22:46:17.062Z,99696.14
2022-08-19T22:48:47.170Z,99695.08
2022-08-19T22:51:34.823Z,99687.79
2022-08-19T22:54:04.094Z,99688.91
2022-08-19T22:56:32.116Z,99692.70
2022-08-19T22:59:00.226Z,99700.47
2022-08-19T23:01:30.313Z,99709.20
2022-08-19T23:03:59.914Z,99713.52
2022-08-19T23:06:31.236Z,99712.84
2022-08-19T23:09:05.362Z,99714.42
2022-08-19T23:11:38.142Z,99717.05
2022-08-19T23:14:12.794Z,99720.90
2022-08-19T23:16:50.507Z,99713.52
2022-08-19T23:19:20.126Z,99713.77
2022-08-19T23:21:49.038Z,99714.17
2022-08-19T23:24:17.292Z,99726.31
2022-08-19T23:27:05.468Z,99724.42
2022-08-19T23:29:52.192Z,99728.30
2022-08-19T23:32:25.725Z,99735.34
2022-08-19T23:34:55.958Z,99742.73
2022-08-19T23:37:25.673Z,99746.34
2022-08-19T23:39:54.306Z,99742.98
2022-08-19T23:42:26.173Z,99735.61
2022-08-19T23:45:02.431Z,99732.75
2022-08-19T23:47:32.449Z,99731.44
2022-08-19T23:50:05.969Z,99730.23
2022-08-19T23:52:42.188Z,99728.42
2022-08-19T23:55:10.692Z,99726.04
2022-08-19T23:57:38.707Z,99726.49
